Alys Beach, FL

2:52 PM CDT on September 18, 2014 (GMT -0500)
Northwest Florida Beaches International | Change Station
CLOSE
Current Station
Airport
Location: Panama City,
Elevation: 69 ft
Nearby Weather Stations

Elev 69 ft 30.36 °N, 85.80 °W | Updated 59 minutes ago

Partly Cloudy
Partly Cloudy
89 °F
Feels Like 93 °F
N
0
Wind Variable Wind from North

Today
High -- | Low -- °F
--% Chance of Precip.
Yesterday
High -- | Low -- °F
Precip. -- in
6:29 AM 6:45 PM
Waning Crescent, 25% visible
Pressure 29.93 in
Visibility 10.0 miles
Clouds Scattered Clouds 5000 ft
Heat Index 93 °F
Dew Point 68 °F
Humidity 50%
Rainfall 0.01 in
Snow Depth Not available.
UV 8 out of 12
Pollen 8.80 out of 12
Air Quality Not available.
Flu Activity Not available.
METAR KECP 181853Z 00000KT 10SM SCT050 32/20 A2990 RMK AO2 SLP134 T03170200 $

More Conditions Fewer Conditions

Pressure 29.93 in
Visibility 10.0 miles
Clouds Scattered Clouds 5000 ft
Heat Index 93 °F
Dew Point 68 °F
Humidity 50%
Rainfall 0.01 in
Snow Depth Not available.
UV 8 out of 12
Pollen 8.80 out of 12
Air Quality Not available.
Flu Activity Not available.
METAR KECP 181853Z 00000KT 10SM SCT050 32/20 A2990 RMK AO2 SLP134 T03170200 $

More Conditions Fewer Conditions

10-Day Weather Forecast

Almanac

Astronomy

Sep. 18, 2014 Rise Set
Actual Time 6:29 AM CDT 6:45 PM CDT
Civil Twilight 6:05 AM CDT 7:09 PM CDT
Nautical Twilight 5:37 AM CDT 7:37 PM CDT
Astronomical Twilight 5:09 AM CDT 8:05 PM CDT
Moon 1:37 AM CDT 3:21 PM CDT
Length of Visible Light 13h 03m
Length of Day
12h 15m
Tomorrow will be 1m 47s shorter.
Waning Crescent, 25% of the Moon is Illuminated
Today
Waning Crescent
Sep 24
New
Oct 1
First Quarter
Oct 8
Full
Oct 15
Last Quarter

Today's Extremes

State Highs State Lows

Community

WunderPhotos

Upload Photos

1,754,421 photos uploaded!

WunderBlogs® & News

By Dr. Jeff Masters
Director of Meteorology, Weather Underground
By Kari Strenfel
Meteorologist, Weather Underground
By Christopher C. Burt
Weather Historian, Weather Underground
September 18, 2014
September 18, 2014
September 18, 2014

Nearby

Snow Depth

Station Depth Elevation
No new snow has been reported.

Earthquake Activity

City Distance Mag. Time & Date
No recent earthquake activity has been reported nearby.
Minimum magnitude displayed is 2.5.

Coastal Water Temperatures

Place Temperature
Panama City, FL 87.1 °F
Panama City Beach, FL 87.1 °F
Apalachicola, FL 84.9 °F

Nearby Weather Stations